Latest Conditions
At L.F.Wade Int. Airport
Recorded at 1:16 pm
Drizzle
Temp.: 
15°C/59°F
Humidity: 
91%
Wind: 
NNE 17KT
or 20mph
UV Index: 
5
Island Observations
 
Observations
Monday, March 18, 2019

Observations are in local time and taken at least once an hour, or upon the start and end of specified events such as showers and thunderstorms.

Time Sky / Weather Wind Speed/Gusts Temp. R.H. Pressure
     knots (mph)  °C (°F)  %  mb / "Hg
 13:16 Overcast Drizzle NNE 17/0 (20/0) 15(59) 91 1019 / 30.09
 13:03 Overcast Drizzle NNE 18/0 (21/0) 15(58) 90 1019 / 30.10
 12:55 Overcast Drizzle NNE 17/27 (20/31) 14(58) 92 1020 / 30.11
 12:30 Overcast Drizzle NNE 15/0 (17/0) 15(58) 94 1020 / 30.11
 11:55 Overcast Drizzle NE 17/0 (20/0) 15(58) 94 1019 / 30.10
 11:36 Overcast Drizzle NE 15/0 (17/0) 14(58) 94 1019 / 30.10
 11:22 Overcast Rain NE 13/0 (15/0) 15(59) 95 1019 / 30.09
 11:07 Overcast Drizzle NE 12/0 (14/0) 15(60) 93 1019 / 30.10
 10:55 Overcast Drizzle NE 13/0 (15/0) 15(59) 89 1019 / 30.09
 10:40 Overcast Drizzle NE 12/0 (14/0) 15(59) 89 1019 / 30.09
 10:05 Overcast Drizzle ENE 14/0 (16/0) 15(60) 92 1018 / 30.07
 09:55 Overcast Drizzle ENE 15/0 (17/0) 15(59) 93 1018 / 30.07
 09:31 Overcast Drizzle NE 15/0 (17/0) 15(59) 93 1018 / 30.06
 09:20 Overcast Drizzle NE 13/0 (15/0) 15(59) 93 1018 / 30.07
 08:55 Overcast Rain NE 14/0 (16/0) 15(59) 89 1018 / 30.06
 08:19 Overcast Rain NE 18/0 (21/0) 15(59) 90 1017 / 30.03
 07:55 Overcast Rain NE 16/0 (18/0) 15(59) 90 1017 / 30.03
 07:26 Overcast Rain ENE 17/0 (20/0) 14(58) 91 1017 / 30.03
 07:02 Overcast  NE 19/0 (22/0) 14(57) 89 1017 / 30.04
 06:55 Overcast Drizzle NNE 18/0 (21/0) 14(57) 90 1017 / 30.04
 06:40 Overcast Drizzle NNE 17/0 (20/0) 13(56) 92 1018 / 30.06
 06:29 Overcast Drizzle NNE 18/0 (21/0) 14(56) 90 1018 / 30.06
 06:08 Overcast Drizzle N 18/0 (21/0) 13(55) 93 1018 / 30.06
 05:55 Overcast Drizzle N 17/0 (20/0) 13(55) 93 1018 / 30.07
 04:55 Overcast Drizzle NNE 17/0 (20/0) 15(59) 94 1017 / 30.02
 04:37 Overcast Drizzle N 17/27 (20/31) 16(60) 95 1017 / 30.02
 03:55 Overcast Drizzle NNE 16/0 (18/0) 16(60) 95 1016 / 30.01
 03:43 Overcast Drizzle NNE 16/0 (18/0) 16(60) 95 1017 / 30.02
 02:55 Overcast Drizzle NNE 17/0 (20/0) 16(61) 96 1017 / 30.03
 01:55 Overcast Drizzle NNE 11/0 (13/0) 17(62) 97 1017 / 30.04
 00:55 Overcast Drizzle NE 10/0 (12/0) 17(63) 97 1018 / 30.05
 23:55 Overcast Drizzle NE 7/0 (8/0) 17(63) 96 1018 / 30.06
 23:16 Overcast Drizzle NNE 6/0 (7/0) 17(63) 96 1018 / 30.06
 22:55 Overcast Drizzle NE 8/0 (9/0) 17(63) 96 1018 / 30.06
 21:55 Overcast Drizzle NE 11/0 (13/0) 17(63) 96 1018 / 30.05
 20:55 Overcast Drizzle NNE 12/0 (14/0) 17(63) 96 1018 / 30.05
 19:55 Overcast Drizzle NNE 10/0 (12/0) 17(63) 96 1018 / 30.05
 19:05 Overcast Drizzle NNE 11/0 (13/0) 18(64) 96 1017 / 30.04
 18:55 Overcast Drizzle NNE 11/0 (13/0) 18(64) 97 1017 / 30.04
 18:26 Overcast Drizzle NNE 9/0 (10/0) 18(64) 97 1017 / 30.03
 17:55 Overcast Drizzle NNE 9/0 (10/0) 18(65) 97 1017 / 30.02
 17:35 Overcast Drizzle N 9/0 (10/0) 18(65) 96 1017 / 30.02
 17:21 Overcast Drizzle N 8/0 (9/0) 18(65) 96 1017 / 30.02
 17:10 Overcast Drizzle NNW 7/0 (8/0) 18(65) 96 1016 / 30.01
 16:55 Overcast Drizzle WNW 10/0 (12/0) 19(65) 96 1016 / 30.01
 16:41 Overcast Drizzle W 11/0 (13/0) 19(66) 96 1017 / 30.02
 16:30 Overcast Showers W 13/0 (15/0) 19(66) 96 1016 / 30.01
 16:24 Overcast Showers WSW 16/0 (18/0) 19(66) 94 1016 / 30.01
 16:15 Overcast Showers SW 15/0 (17/0) 20(68) 89 1016 / 30.01
 16:00 Overcast Showers WSW 13/0 (15/0) 20(69) 86 1016 / 30.01
 15:55 Overcast Showers WSW 17/0 (20/0) 20(68) 89 1016 / 30.01
 15:39 Overcast Showers WSW 15/0 (17/0) 20(69) 86 1017 / 30.02
 14:55 Overcast  WSW 15/0 (17/0) 21(70) 81 1017 / 30.02
 14:11 Overcast Showers SW 14/0 (16/0) 17(62) 89 1017 / 30.04
 14:06 Overcast Showers SW 16/0 (18/0) 20(69) 83 1017 / 30.04
 13:55 Overcast  SW 18/0 (21/0) 21(69) 82 1017 / 30.04
 13:32 Overcast  WSW 15/0 (17/0) 21(69) 81 1018 / 30.05
 12:55 Overcast  WSW 13/0 (15/0) 21(69) 82 1018 / 30.06
 11:55 Overcast  WSW 15/0 (17/0) 20(69) 82 1018 / 30.07
 11:37 Overcast  WSW 14/0 (16/0) 20(69) 82 1018 / 30.07
 11:05 Overcast  WSW 14/0 (16/0) 20(69) 83 1019 / 30.08
 10:55 Mostly Cloudy  WSW 15/0 (17/0) 20(69) 82 1018 / 30.07
 10:19 Mostly Cloudy  WSW 18/0 (21/0) 20(68) 80 1018 / 30.07
 09:55 Mostly Cloudy  SW 14/0 (16/0) 20(68) 80 1018 / 30.06
 08:55 Few Clouds  SW 10/0 (12/0) 20(67) 81 1018 / 30.05
 07:55 Mostly Cloudy  WSW 9/0 (10/0) 19(66) 83 1018 / 30.05
 06:55 Mostly Cloudy  SW 11/0 (13/0) 18(65) 80 1017 / 30.04
 05:55 Partly Cloudy  WSW 11/0 (13/0) 18(65) 82 1017 / 30.02
 04:55 Few Clouds  SW 12/0 (14/0) 18(64) 83 1017 / 30.02
 03:55 Few Clouds  SW 11/0 (13/0) 18(64) 81 1017 / 30.04
 02:55 Few Clouds  SW 11/0 (13/0) 18(64) 81 1018 / 30.07
 01:55 Partly Cloudy  SW 10/0 (12/0) 18(65) 77 1019 / 30.09
 00:55 Few Clouds  WSW 9/0 (10/0) 18(65) 77 1020 / 30.11
 23:55 Few Clouds  SW 10/0 (12/0) 18(65) 76 1020 / 30.12
 22:55 Partly Cloudy  SW 11/0 (13/0) 18(65) 77 1020 / 30.13
 21:55 Mostly Cloudy  SW 8/0 (9/0) 19(66) 74 1020 / 30.13
 20:55 Few Clouds  SW 10/0 (12/0) 19(66) 76 1020 / 30.12
 19:55 Few Clouds  SW 9/0 (10/0) 20(67) 70 1020 / 30.11
 18:55 Few Clouds  SW 10/0 (12/0) 20(68) 64 1019 / 30.10
 17:55 Partly Cloudy  SW 10/0 (12/0) 20(68) 64 1019 / 30.10
 16:55 Partly Cloudy  SW 10/0 (12/0) 20(68) 65 1020 / 30.11
 15:55 Mostly Cloudy  W 8/0 (9/0) 20(68) 72 1020 / 30.13
 14:55 Partly Cloudy  W 9/0 (10/0) 20(68) 72 1021 / 30.15
 14:16 Mostly Cloudy  W 11/0 (13/0) 20(68) 69 1021 / 30.16
 13:55 Mostly Cloudy  SW 4/0 (5/0) 20(68) 70 1022 / 30.17
 12:55 Mostly Cloudy  WSW 5/0 (6/0) 20(68) 75 1022 / 30.17
 11:55 Mostly Cloudy Showers SSE 6/0 (7/0) 19(67) 74 1022 / 30.18
 10:55 Mostly Cloudy  SSE 5/0 (6/0) 19(65) 79 1022 / 30.19
 09:55 Mostly Cloudy  SSE 6/0 (7/0) 18(64) 84 1022 / 30.19
 08:55 Mostly Cloudy  SSE 5/0 (6/0) 16(61) 91 1023 / 30.20
 07:55 Mostly Cloudy  S 7/0 (8/0) 16(61) 91 1023 / 30.20
 06:55 Mostly Cloudy Showers S 8/0 (9/0) 16(62) 90 1022 / 30.19
 06:35 Mostly Cloudy Showers SSW 5/0 (6/0) 17(62) 85 1022 / 30.19
 06:25 Mostly Cloudy Showers SSW 6/0 (7/0) 17(62) 89 1022 / 30.19
 05:55 Mostly Cloudy Showers VRB 2/0 (2/0) 17(62) 85 1022 / 30.18
 04:55 Partly Cloudy  N 1/0 (1/0) 16(62) 83 1022 / 30.18
 03:55 Partly Cloudy  VRB 1/0 (1/0) 17(62) 77 1023 / 30.20
 02:55 Partly Cloudy  S 3/0 (3/0) 17(63) 74 1023 / 30.22
 01:55 Mostly Cloudy  S 5/0 (6/0) 18(64) 73 1024 / 30.24
 00:55 Partly Cloudy  S 6/0 (7/0) 18(64) 73 1024 / 30.25
Island AWOS